sensor_id;sensor_type;location;lat;lon;timestamp;P1;durP1;ratioP1;P2;durP2;ratioP2
69280;SDS011;56392;51.082;17.080;2023-12-20T00:03:39;12.02;;;4.90;;
69280;SDS011;56392;51.082;17.080;2023-12-20T00:09:04;13.70;;;4.82;;
69280;SDS011;56392;51.082;17.080;2023-12-20T00:14:27;12.20;;;4.83;;
69280;SDS011;56392;51.082;17.080;2023-12-20T00:19:52;11.80;;;5.20;;
69280;SDS011;56392;51.082;17.080;2023-12-20T00:25:15;13.07;;;5.82;;
69280;SDS011;56392;51.082;17.080;2023-12-20T00:30:38;13.10;;;5.53;;
69280;SDS011;56392;51.082;17.080;2023-12-20T00:36:03;13.43;;;5.13;;
69280;SDS011;56392;51.082;17.080;2023-12-20T00:41:27;12.82;;;5.90;;
69280;SDS011;56392;51.082;17.080;2023-12-20T00:46:50;13.63;;;4.78;;
69280;SDS011;56392;51.082;17.080;2023-12-20T00:52:15;13.93;;;6.00;;
69280;SDS011;56392;51.082;17.080;2023-12-20T00:57:38;13.88;;;6.40;;
69280;SDS011;56392;51.082;17.080;2023-12-20T01:03:02;15.48;;;6.50;;
69280;SDS011;56392;51.082;17.080;2023-12-20T01:08:27;19.07;;;8.83;;
69280;SDS011;56392;51.082;17.080;2023-12-20T01:13:50;19.80;;;7.30;;
69280;SDS011;56392;51.082;17.080;2023-12-20T01:19:13;15.50;;;6.40;;
69280;SDS011;56392;51.082;17.080;2023-12-20T01:24:37;14.27;;;5.85;;
69280;SDS011;56392;51.082;17.080;2023-12-20T01:30:00;12.30;;;5.33;;
69280;SDS011;56392;51.082;17.080;2023-12-20T01:35:23;11.95;;;5.10;;
69280;SDS011;56392;51.082;17.080;2023-12-20T01:40:48;11.23;;;4.60;;
69280;SDS011;56392;51.082;17.080;2023-12-20T01:46:11;10.90;;;4.80;;
69280;SDS011;56392;51.082;17.080;2023-12-20T01:51:34;14.10;;;4.85;;
69280;SDS011;56392;51.082;17.080;2023-12-20T01:57:00;13.73;;;5.20;;
69280;SDS011;56392;51.082;17.080;2023-12-20T02:02:24;10.03;;;4.80;;
69280;SDS011;56392;51.082;17.080;2023-12-20T02:07:49;9.83;;;4.43;;
69280;SDS011;56392;51.082;17.080;2023-12-20T02:13:14;10.98;;;4.90;;
69280;SDS011;56392;51.082;17.080;2023-12-20T02:18:37;9.77;;;4.45;;
69280;SDS011;56392;51.082;17.080;2023-12-20T02:24:01;10.60;;;4.70;;
69280;SDS011;56392;51.082;17.080;2023-12-20T02:29:25;10.90;;;4.82;;
69280;SDS011;56392;51.082;17.080;2023-12-20T02:34:48;9.05;;;4.22;;
69280;SDS011;56392;51.082;17.080;2023-12-20T02:40:13;10.40;;;4.30;;
69280;SDS011;56392;51.082;17.080;2023-12-20T02:45:36;12.30;;;4.68;;
69280;SDS011;56392;51.082;17.080;2023-12-20T02:50:59;10.15;;;4.07;;
69280;SDS011;56392;51.082;17.080;2023-12-20T02:56:23;9.73;;;3.70;;
69280;SDS011;56392;51.082;17.080;2023-12-20T03:01:46;8.10;;;3.50;;
69280;SDS011;56392;51.082;17.080;2023-12-20T03:07:10;8.10;;;3.33;;
69280;SDS011;56392;51.082;17.080;2023-12-20T03:12:34;7.22;;;2.60;;
69280;SDS011;56392;51.082;17.080;2023-12-20T03:17:58;5.77;;;1.90;;
69280;SDS011;56392;51.082;17.080;2023-12-20T03:23:21;7.03;;;2.10;;
69280;SDS011;56392;51.082;17.080;2023-12-20T03:28:45;6.40;;;2.08;;
69280;SDS011;56392;51.082;17.080;2023-12-20T03:34:10;6.53;;;2.20;;
69280;SDS011;56392;51.082;17.080;2023-12-20T03:39:33;6.85;;;1.90;;
69280;SDS011;56392;51.082;17.080;2023-12-20T03:44:57;5.78;;;1.70;;
69280;SDS011;56392;51.082;17.080;2023-12-20T03:50:21;5.17;;;1.30;;
69280;SDS011;56392;51.082;17.080;2023-12-20T03:55:44;3.90;;;1.17;;
69280;SDS011;56392;51.082;17.080;2023-12-20T04:01:10;5.28;;;1.17;;
69280;SDS011;56392;51.082;17.080;2023-12-20T04:06:34;4.03;;;1.10;;
69280;SDS011;56392;51.082;17.080;2023-12-20T04:11:57;2.70;;;0.63;;
69280;SDS011;56392;51.082;17.080;2023-12-20T04:17:21;4.25;;;1.00;;
69280;SDS011;56392;51.082;17.080;2023-12-20T04:22:45;3.15;;;0.75;;
69280;SDS011;56392;51.082;17.080;2023-12-20T04:28:08;4.00;;;0.87;;
69280;SDS011;56392;51.082;17.080;2023-12-20T04:33:32;3.83;;;0.80;;
69280;SDS011;56392;51.082;17.080;2023-12-20T04:38:55;4.32;;;0.90;;
69280;SDS011;56392;51.082;17.080;2023-12-20T04:44:18;2.73;;;0.70;;
69280;SDS011;56392;51.082;17.080;2023-12-20T04:49:43;3.00;;;0.73;;
69280;SDS011;56392;51.082;17.080;2023-12-20T04:55:07;2.78;;;0.60;;
69280;SDS011;56392;51.082;17.080;2023-12-20T05:00:30;3.60;;;0.70;;
69280;SDS011;56392;51.082;17.080;2023-12-20T05:05:55;2.97;;;0.60;;
69280;SDS011;56392;51.082;17.080;2023-12-20T05:11:18;2.63;;;0.63;;
69280;SDS011;56392;51.082;17.080;2023-12-20T05:16:41;2.95;;;0.50;;
69280;SDS011;56392;51.082;17.080;2023-12-20T05:22:05;2.37;;;0.50;;
69280;SDS011;56392;51.082;17.080;2023-12-20T05:27:28;2.40;;;0.50;;
69280;SDS011;56392;51.082;17.080;2023-12-20T05:32:51;2.65;;;0.60;;
69280;SDS011;56392;51.082;17.080;2023-12-20T05:38:16;3.27;;;0.60;;
69280;SDS011;56392;51.082;17.080;2023-12-20T05:43:39;2.50;;;0.60;;
69280;SDS011;56392;51.082;17.080;2023-12-20T05:49:02;2.83;;;0.75;;
69280;SDS011;56392;51.082;17.080;2023-12-20T05:54:29;4.13;;;1.08;;
69280;SDS011;56392;51.082;17.080;2023-12-20T05:59:54;5.77;;;1.00;;
69280;SDS011;56392;51.082;17.080;2023-12-20T06:05:17;4.95;;;1.20;;
69280;SDS011;56392;51.082;17.080;2023-12-20T06:10:42;5.53;;;1.33;;
69280;SDS011;56392;51.082;17.080;2023-12-20T06:16:06;3.97;;;0.90;;
69280;SDS011;56392;51.082;17.080;2023-12-20T06:21:30;4.93;;;1.33;;
69280;SDS011;56392;51.082;17.080;2023-12-20T06:26:55;4.63;;;1.10;;
69280;SDS011;56392;51.082;17.080;2023-12-20T06:32:18;4.80;;;1.30;;
69280;SDS011;56392;51.082;17.080;2023-12-20T06:37:41;5.00;;;1.40;;
69280;SDS011;56392;51.082;17.080;2023-12-20T06:43:06;4.60;;;1.17;;
69280;SDS011;56392;51.082;17.080;2023-12-20T06:48:29;4.78;;;1.00;;
69280;SDS011;56392;51.082;17.080;2023-12-20T06:53:52;4.50;;;1.20;;
69280;SDS011;56392;51.082;17.080;2023-12-20T06:59:18;8.70;;;3.03;;
69280;SDS011;56392;51.082;17.080;2023-12-20T07:04:41;5.95;;;1.20;;
69280;SDS011;56392;51.082;17.080;2023-12-20T07:10:05;3.97;;;1.00;;
69280;SDS011;56392;51.082;17.080;2023-12-20T07:15:30;5.38;;;1.10;;
69280;SDS011;56392;51.082;17.080;2023-12-20T07:20:53;3.53;;;0.88;;
69280;SDS011;56392;51.082;17.080;2023-12-20T07:26:19;3.13;;;0.70;;
69280;SDS011;56392;51.082;17.080;2023-12-20T07:31:43;5.07;;;0.97;;
69280;SDS011;56392;51.082;17.080;2023-12-20T07:37:07;3.92;;;0.90;;
69280;SDS011;56392;51.082;17.080;2023-12-20T07:42:31;4.10;;;1.00;;
69280;SDS011;56392;51.082;17.080;2023-12-20T07:47:56;4.80;;;0.97;;
69280;SDS011;56392;51.082;17.080;2023-12-20T07:53:19;3.97;;;1.05;;
69280;SDS011;56392;51.082;17.080;2023-12-20T07:58:42;4.72;;;1.10;;
69280;SDS011;56392;51.082;17.080;2023-12-20T08:04:08;6.00;;;1.03;;
69280;SDS011;56392;51.082;17.080;2023-12-20T08:09:33;5.20;;;1.25;;
69280;SDS011;56392;51.082;17.080;2023-12-20T08:14:58;5.38;;;1.20;;
69280;SDS011;56392;51.082;17.080;2023-12-20T08:20:22;4.63;;;0.90;;
69280;SDS011;56392;51.082;17.080;2023-12-20T08:25:46;3.27;;;0.67;;
69280;SDS011;56392;51.082;17.080;2023-12-20T08:31:13;4.32;;;0.90;;
69280;SDS011;56392;51.082;17.080;2023-12-20T08:36:39;5.15;;;1.25;;
69280;SDS011;56392;51.082;17.080;2023-12-20T08:42:02;4.23;;;0.90;;
69280;SDS011;56392;51.082;17.080;2023-12-20T08:47:26;2.70;;;0.60;;
69280;SDS011;56392;51.082;17.080;2023-12-20T08:52:52;3.08;;;0.75;;
69280;SDS011;56392;51.082;17.080;2023-12-20T08:58:15;3.27;;;0.57;;
69280;SDS011;56392;51.082;17.080;2023-12-20T09:03:38;4.82;;;0.90;;
69280;SDS011;56392;51.082;17.080;2023-12-20T09:09:03;4.38;;;0.70;;
69280;SDS011;56392;51.082;17.080;2023-12-20T09:14:27;3.73;;;0.80;;
69280;SDS011;56392;51.082;17.080;2023-12-20T09:19:52;3.73;;;0.90;;
69280;SDS011;56392;51.082;17.080;2023-12-20T09:25:17;5.13;;;0.80;;
69280;SDS011;56392;51.082;17.080;2023-12-20T09:30:40;3.60;;;0.80;;
69280;SDS011;56392;51.082;17.080;2023-12-20T09:36:03;3.63;;;0.80;;
69280;SDS011;56392;51.082;17.080;2023-12-20T09:41:29;3.53;;;0.80;;
69280;SDS011;56392;51.082;17.080;2023-12-20T09:46:56;4.07;;;0.90;;
69280;SDS011;56392;51.082;17.080;2023-12-20T09:52:19;3.57;;;0.90;;
69280;SDS011;56392;51.082;17.080;2023-12-20T09:57:46;3.20;;;0.75;;
69280;SDS011;56392;51.082;17.080;2023-12-20T10:03:09;4.72;;;0.95;;
69280;SDS011;56392;51.082;17.080;2023-12-20T10:08:35;5.00;;;1.07;;
69280;SDS011;56392;51.082;17.080;2023-12-20T10:14:00;6.53;;;1.20;;
69280;SDS011;56392;51.082;17.080;2023-12-20T10:19:23;5.18;;;1.20;;
69280;SDS011;56392;51.082;17.080;2023-12-20T10:24:47;5.70;;;1.00;;
69280;SDS011;56392;51.082;17.080;2023-12-20T10:30:13;5.87;;;0.90;;
69280;SDS011;56392;51.082;17.080;2023-12-20T10:35:37;7.15;;;1.30;;
69280;SDS011;56392;51.082;17.080;2023-12-20T10:41:01;4.55;;;1.02;;
69280;SDS011;56392;51.082;17.080;2023-12-20T10:46:30;5.83;;;1.30;;
69280;SDS011;56392;51.082;17.080;2023-12-20T10:51:54;5.18;;;1.08;;
69280;SDS011;56392;51.082;17.080;2023-12-20T10:57:18;7.80;;;1.63;;
69280;SDS011;56392;51.082;17.080;2023-12-20T11:02:43;7.90;;;1.40;;
69280;SDS011;56392;51.082;17.080;2023-12-20T11:08:07;5.77;;;1.33;;
69280;SDS011;56392;51.082;17.080;2023-12-20T11:13:34;8.07;;;1.33;;
69280;SDS011;56392;51.082;17.080;2023-12-20T11:19:05;7.82;;;1.45;;
69280;SDS011;56392;51.082;17.080;2023-12-20T11:24:29;5.13;;;1.20;;
69280;SDS011;56392;51.082;17.080;2023-12-20T11:29:56;6.47;;;1.23;;
69280;SDS011;56392;51.082;17.080;2023-12-20T11:35:23;7.25;;;1.30;;
69280;SDS011;56392;51.082;17.080;2023-12-20T11:40:47;5.93;;;1.20;;
69280;SDS011;56392;51.082;17.080;2023-12-20T11:46:12;4.47;;;1.00;;
69280;SDS011;56392;51.082;17.080;2023-12-20T11:51:36;3.75;;;0.90;;
69280;SDS011;56392;51.082;17.080;2023-12-20T11:57:05;5.67;;;1.20;;
69280;SDS011;56392;51.082;17.080;2023-12-20T12:02:28;4.27;;;0.97;;
69280;SDS011;56392;51.082;17.080;2023-12-20T12:07:52;4.85;;;1.30;;
69280;SDS011;56392;51.082;17.080;2023-12-20T12:13:16;7.32;;;1.17;;
69280;SDS011;56392;51.082;17.080;2023-12-20T12:18:39;6.33;;;0.97;;
69280;SDS011;56392;51.082;17.080;2023-12-20T12:24:08;4.32;;;1.20;;
69280;SDS011;56392;51.082;17.080;2023-12-20T12:29:34;8.63;;;1.30;;
69280;SDS011;56392;51.082;17.080;2023-12-20T12:34:58;6.83;;;1.30;;
69280;SDS011;56392;51.082;17.080;2023-12-20T12:40:22;8.52;;;1.55;;
69280;SDS011;56392;51.082;17.080;2023-12-20T12:45:45;6.07;;;1.13;;
69280;SDS011;56392;51.082;17.080;2023-12-20T12:51:09;6.60;;;1.27;;
69280;SDS011;56392;51.082;17.080;2023-12-20T12:56:36;7.00;;;1.37;;
69280;SDS011;56392;51.082;17.080;2023-12-20T13:01:59;8.38;;;1.33;;
69280;SDS011;56392;51.082;17.080;2023-12-20T13:07:25;7.20;;;1.27;;
69280;SDS011;56392;51.082;17.080;2023-12-20T13:12:49;9.13;;;1.30;;
69280;SDS011;56392;51.082;17.080;2023-12-20T13:18:13;4.40;;;0.75;;
69280;SDS011;56392;51.082;17.080;2023-12-20T13:23:36;8.60;;;1.13;;
69280;SDS011;56392;51.082;17.080;2023-12-20T13:29:00;5.93;;;1.37;;
69280;SDS011;56392;51.082;17.080;2023-12-20T13:34:23;5.53;;;0.90;;
69280;SDS011;56392;51.082;17.080;2023-12-20T13:39:46;6.15;;;1.00;;
69280;SDS011;56392;51.082;17.080;2023-12-20T13:45:11;5.73;;;1.20;;
69280;SDS011;56392;51.082;17.080;2023-12-20T13:50:34;4.77;;;0.97;;
69280;SDS011;56392;51.082;17.080;2023-12-20T13:55:57;4.70;;;1.02;;
69280;SDS011;56392;51.082;17.080;2023-12-20T14:01:22;5.10;;;1.23;;
69280;SDS011;56392;51.082;17.080;2023-12-20T14:06:46;9.70;;;1.17;;
69280;SDS011;56392;51.082;17.080;2023-12-20T14:12:09;12.68;;;1.20;;
69280;SDS011;56392;51.082;17.080;2023-12-20T14:17:33;5.95;;;1.20;;
69280;SDS011;56392;51.082;17.080;2023-12-20T14:22:56;6.93;;;1.20;;
69280;SDS011;56392;51.082;17.080;2023-12-20T14:28:19;5.63;;;1.17;;
69280;SDS011;56392;51.082;17.080;2023-12-20T14:33:44;7.55;;;1.17;;
69280;SDS011;56392;51.082;17.080;2023-12-20T14:39:07;8.40;;;1.33;;
69280;SDS011;56392;51.082;17.080;2023-12-20T14:44:34;7.30;;;1.30;;
69280;SDS011;56392;51.082;17.080;2023-12-20T14:49:58;10.25;;;2.15;;
69280;SDS011;56392;51.082;17.080;2023-12-20T14:55:22;7.70;;;1.48;;
69280;SDS011;56392;51.082;17.080;2023-12-20T15:00:45;9.70;;;1.40;;
69280;SDS011;56392;51.082;17.080;2023-12-20T15:06:09;7.95;;;1.50;;
69280;SDS011;56392;51.082;17.080;2023-12-20T15:11:33;5.38;;;1.40;;
69280;SDS011;56392;51.082;17.080;2023-12-20T15:16:57;8.00;;;1.70;;
69280;SDS011;56392;51.082;17.080;2023-12-20T15:22:21;9.98;;;1.80;;
69280;SDS011;56392;51.082;17.080;2023-12-20T15:27:45;10.65;;;1.67;;
69280;SDS011;56392;51.082;17.080;2023-12-20T15:33:10;8.50;;;1.80;;
69280;SDS011;56392;51.082;17.080;2023-12-20T15:38:35;6.43;;;1.20;;
69280;SDS011;56392;51.082;17.080;2023-12-20T15:43:57;6.07;;;1.25;;
69280;SDS011;56392;51.082;17.080;2023-12-20T15:49:20;7.20;;;1.80;;
69280;SDS011;56392;51.082;17.080;2023-12-20T15:54:45;6.90;;;1.73;;
69280;SDS011;56392;51.082;17.080;2023-12-20T16:00:09;10.98;;;1.80;;
69280;SDS011;56392;51.082;17.080;2023-12-20T16:05:33;9.50;;;2.00;;
69280;SDS011;56392;51.082;17.080;2023-12-20T16:10:57;7.00;;;2.07;;
69280;SDS011;56392;51.082;17.080;2023-12-20T16:16:20;9.32;;;2.00;;
69280;SDS011;56392;51.082;17.080;2023-12-20T16:21:43;11.30;;;2.30;;
69280;SDS011;56392;51.082;17.080;2023-12-20T16:27:08;10.10;;;1.90;;
69280;SDS011;56392;51.082;17.080;2023-12-20T16:32:31;8.93;;;2.10;;
69280;SDS011;56392;51.082;17.080;2023-12-20T16:37:55;9.27;;;2.17;;
69280;SDS011;56392;51.082;17.080;2023-12-20T16:43:20;7.60;;;1.90;;
69280;SDS011;56392;51.082;17.080;2023-12-20T16:48:44;11.57;;;2.60;;
69280;SDS011;56392;51.082;17.080;2023-12-20T16:54:07;9.68;;;2.20;;
69280;SDS011;56392;51.082;17.080;2023-12-20T16:59:31;7.97;;;2.00;;
69280;SDS011;56392;51.082;17.080;2023-12-20T17:04:54;10.00;;;2.50;;
69280;SDS011;56392;51.082;17.080;2023-12-20T17:10:19;9.98;;;2.30;;
69280;SDS011;56392;51.082;17.080;2023-12-20T17:15:43;10.65;;;2.47;;
69280;SDS011;56392;51.082;17.080;2023-12-20T17:21:06;9.17;;;2.43;;
69280;SDS011;56392;51.082;17.080;2023-12-20T17:26:30;11.37;;;2.83;;
69280;SDS011;56392;51.082;17.080;2023-12-20T17:31:54;6.25;;;1.67;;
69280;SDS011;56392;51.082;17.080;2023-12-20T17:37:17;10.07;;;1.63;;
69280;SDS011;56392;51.082;17.080;2023-12-20T17:42:42;8.13;;;1.80;;
69280;SDS011;56392;51.082;17.080;2023-12-20T17:48:08;7.82;;;1.90;;
69280;SDS011;56392;51.082;17.080;2023-12-20T17:53:31;5.68;;;1.25;;
69280;SDS011;56392;51.082;17.080;2023-12-20T17:58:54;5.57;;;1.13;;
69280;SDS011;56392;51.082;17.080;2023-12-20T18:04:19;6.05;;;1.05;;
69280;SDS011;56392;51.082;17.080;2023-12-20T18:09:44;5.43;;;1.20;;
69280;SDS011;56392;51.082;17.080;2023-12-20T18:15:07;6.07;;;1.20;;
69280;SDS011;56392;51.082;17.080;2023-12-20T18:20:35;3.40;;;0.80;;
69280;SDS011;56392;51.082;17.080;2023-12-20T18:25:58;4.95;;;1.10;;
69280;SDS011;56392;51.082;17.080;2023-12-20T18:31:22;4.25;;;1.05;;
69280;SDS011;56392;51.082;17.080;2023-12-20T18:36:47;4.57;;;1.10;;
69280;SDS011;56392;51.082;17.080;2023-12-20T18:42:10;4.43;;;1.02;;
69280;SDS011;56392;51.082;17.080;2023-12-20T18:47:34;5.60;;;1.10;;
69280;SDS011;56392;51.082;17.080;2023-12-20T18:52:58;7.03;;;1.00;;
69280;SDS011;56392;51.082;17.080;2023-12-20T18:58:23;4.53;;;0.95;;
69280;SDS011;56392;51.082;17.080;2023-12-20T19:03:52;5.25;;;1.20;;
69280;SDS011;56392;51.082;17.080;2023-12-20T19:09:18;5.20;;;1.17;;
69280;SDS011;56392;51.082;17.080;2023-12-20T19:14:41;4.87;;;0.83;;
69280;SDS011;56392;51.082;17.080;2023-12-20T19:20:06;3.90;;;0.90;;
69280;SDS011;56392;51.082;17.080;2023-12-20T19:25:31;6.82;;;1.02;;
69280;SDS011;56392;51.082;17.080;2023-12-20T19:30:56;6.60;;;1.07;;
69280;SDS011;56392;51.082;17.080;2023-12-20T19:36:23;5.13;;;1.00;;
69280;SDS011;56392;51.082;17.080;2023-12-20T19:41:48;5.68;;;1.00;;
69280;SDS011;56392;51.082;17.080;2023-12-20T19:47:11;5.87;;;1.30;;
69280;SDS011;56392;51.082;17.080;2023-12-20T19:52:36;6.75;;;1.52;;
69280;SDS011;56392;51.082;17.080;2023-12-20T19:58:03;5.75;;;1.67;;
69280;SDS011;56392;51.082;17.080;2023-12-20T20:03:27;6.63;;;1.80;;
69280;SDS011;56392;51.082;17.080;2023-12-20T20:08:50;5.90;;;1.50;;
69280;SDS011;56392;51.082;17.080;2023-12-20T20:14:19;7.85;;;1.88;;
69280;SDS011;56392;51.082;17.080;2023-12-20T20:19:42;6.25;;;1.70;;
69280;SDS011;56392;51.082;17.080;2023-12-20T20:25:08;6.70;;;1.50;;
69280;SDS011;56392;51.082;17.080;2023-12-20T20:30:37;6.00;;;1.20;;
69280;SDS011;56392;51.082;17.080;2023-12-20T20:36:07;6.43;;;1.13;;
69280;SDS011;56392;51.082;17.080;2023-12-20T20:41:32;5.53;;;1.10;;
69280;SDS011;56392;51.082;17.080;2023-12-20T20:46:57;5.03;;;0.90;;
69280;SDS011;56392;51.082;17.080;2023-12-20T20:52:20;4.57;;;0.95;;
69280;SDS011;56392;51.082;17.080;2023-12-20T20:57:45;7.00;;;0.93;;
69280;SDS011;56392;51.082;17.080;2023-12-20T21:03:12;6.23;;;1.00;;
69280;SDS011;56392;51.082;17.080;2023-12-20T21:08:35;6.55;;;1.40;;
69280;SDS011;56392;51.082;17.080;2023-12-20T21:13:58;6.13;;;1.50;;
69280;SDS011;56392;51.082;17.080;2023-12-20T21:19:23;4.90;;;1.30;;
69280;SDS011;56392;51.082;17.080;2023-12-20T21:24:46;6.72;;;1.60;;
69280;SDS011;56392;51.082;17.080;2023-12-20T21:30:11;7.00;;;1.50;;
69280;SDS011;56392;51.082;17.080;2023-12-20T21:35:36;9.43;;;1.70;;
69280;SDS011;56392;51.082;17.080;2023-12-20T21:41:00;7.68;;;1.80;;
69280;SDS011;56392;51.082;17.080;2023-12-20T21:46:23;5.65;;;1.40;;
69280;SDS011;56392;51.082;17.080;2023-12-20T21:51:49;6.60;;;1.90;;
69280;SDS011;56392;51.082;17.080;2023-12-20T21:57:12;5.57;;;1.40;;
69280;SDS011;56392;51.082;17.080;2023-12-20T22:02:35;5.50;;;1.48;;
69280;SDS011;56392;51.082;17.080;2023-12-20T22:08:01;8.52;;;1.58;;
69280;SDS011;56392;51.082;17.080;2023-12-20T22:13:25;7.00;;;1.70;;
69280;SDS011;56392;51.082;17.080;2023-12-20T22:18:52;7.03;;;1.58;;
69280;SDS011;56392;51.082;17.080;2023-12-20T22:24:16;7.70;;;1.88;;
69280;SDS011;56392;51.082;17.080;2023-12-20T22:29:40;8.70;;;1.60;;
69280;SDS011;56392;51.082;17.080;2023-12-20T22:35:08;5.90;;;1.20;;
69280;SDS011;56392;51.082;17.080;2023-12-20T22:40:36;12.98;;;3.47;;
69280;SDS011;56392;51.082;17.080;2023-12-20T22:45:59;8.20;;;1.70;;
69280;SDS011;56392;51.082;17.080;2023-12-20T22:51:23;4.73;;;0.93;;
69280;SDS011;56392;51.082;17.080;2023-12-20T22:56:49;4.72;;;0.80;;
69280;SDS011;56392;51.082;17.080;2023-12-20T23:02:15;3.72;;;0.75;;
69280;SDS011;56392;51.082;17.080;2023-12-20T23:07:38;4.80;;;0.77;;
69280;SDS011;56392;51.082;17.080;2023-12-20T23:13:03;3.58;;;0.80;;
69280;SDS011;56392;51.082;17.080;2023-12-20T23:18:27;3.97;;;0.70;;
69280;SDS011;56392;51.082;17.080;2023-12-20T23:23:50;4.57;;;0.70;;
69280;SDS011;56392;51.082;17.080;2023-12-20T23:29:14;4.00;;;0.60;;
69280;SDS011;56392;51.082;17.080;2023-12-20T23:34:39;4.07;;;0.60;;
69280;SDS011;56392;51.082;17.080;2023-12-20T23:40:03;3.10;;;0.60;;
69280;SDS011;56392;51.082;17.080;2023-12-20T23:45:28;5.53;;;0.77;;
69280;SDS011;56392;51.082;17.080;2023-12-20T23:50:51;2.47;;;0.50;;
69280;SDS011;56392;51.082;17.080;2023-12-20T23:56:15;5.82;;;0.73;;
